createdAt,value
2017-09-29T00:00:21.290Z,79.50
2017-09-29T00:02:48.805Z,79.30
2017-09-29T00:05:16.298Z,79.40
2017-09-29T00:07:43.809Z,79.30
2017-09-29T00:10:12.070Z,79.10
2017-09-29T00:12:40.354Z,79.30
2017-09-29T00:15:08.618Z,79.40
2017-09-29T00:17:36.110Z,79.40
2017-09-29T00:20:03.621Z,79.30
2017-09-29T00:22:31.126Z,79.10
2017-09-29T00:24:58.642Z,78.90
2017-09-29T00:27:26.143Z,79.00
2017-09-29T00:29:53.658Z,78.80
2017-09-29T00:32:21.158Z,78.80
2017-09-29T00:34:48.703Z,78.80
2017-09-29T00:37:16.202Z,79.10
2017-09-29T00:39:43.706Z,78.90
2017-09-29T00:42:11.229Z,80.30
2017-09-29T00:44:38.718Z,79.50
2017-09-29T00:47:06.242Z,79.60
2017-09-29T00:49:33.743Z,79.60
2017-09-29T00:52:02.026Z,79.60
2017-09-29T00:54:30.328Z,79.40
2017-09-29T00:56:57.823Z,79.50
2017-09-29T00:59:25.338Z,79.50
2017-09-29T01:01:52.829Z,79.30
2017-09-29T01:04:20.354Z,79.30
2017-09-29T01:06:47.851Z,79.20
2017-09-29T01:09:15.343Z,79.40
2017-09-29T01:11:42.857Z,79.40
2017-09-29T01:14:10.350Z,79.70
2017-09-29T01:16:37.868Z,79.50
2017-09-29T01:19:05.361Z,79.70
2017-09-29T01:21:32.875Z,79.70
2017-09-29T01:24:00.486Z,79.80
2017-09-29T01:26:28.002Z,79.80
2017-09-29T01:28:55.502Z,80.00
2017-09-29T01:31:23.761Z,80.00
2017-09-29T01:33:51.274Z,80.00
2017-09-29T01:36:18.766Z,80.20
2017-09-29T01:38:46.297Z,80.00
2017-09-29T01:41:13.837Z,80.00
2017-09-29T01:43:42.112Z,80.10
2017-09-29T01:46:10.381Z,80.00
2017-09-29T01:48:38.662Z,80.40
2017-09-29T01:51:06.918Z,80.40
2017-09-29T01:53:34.410Z,80.40
2017-09-29T01:56:01.933Z,80.60
2017-09-29T01:58:29.426Z,80.20
2017-09-29T02:00:56.970Z,80.50
2017-09-29T02:03:25.232Z,80.70
2017-09-29T02:05:52.745Z,80.70
2017-09-29T02:08:20.234Z,80.70
2017-09-29T02:10:47.726Z,80.70
2017-09-29T02:13:16.006Z,80.70
2017-09-29T02:15:44.265Z,80.50
2017-09-29T02:18:11.783Z,80.50
2017-09-29T02:20:39.278Z,80.70
2017-09-29T02:23:07.567Z,81.50
2017-09-29T02:25:35.830Z,80.70
2017-09-29T02:28:03.330Z,80.70
2017-09-29T02:30:30.846Z,80.80
2017-09-29T02:32:58.347Z,80.90
2017-09-29T02:35:25.873Z,81.00
2017-09-29T02:37:54.129Z,80.80
2017-09-29T02:40:21.646Z,80.80
2017-09-29T02:42:49.138Z,80.80
2017-09-29T02:45:16.654Z,81.00
2017-09-29T02:47:44.150Z,81.00
2017-09-29T02:50:11.664Z,81.20
2017-09-29T02:52:39.181Z,81.20
2017-09-29T02:55:07.442Z,81.20
2017-09-29T02:57:36.845Z,81.20
2017-09-29T03:00:07.753Z,81.20
2017-09-29T03:02:38.623Z,81.00
2017-09-29T03:05:11.486Z,80.80
2017-09-29T03:07:38.998Z,80.80
2017-09-29T03:10:07.258Z,80.70
2017-09-29T03:12:34.777Z,80.70
2017-09-29T03:15:02.279Z,80.80
2017-09-29T03:17:30.545Z,80.80
2017-09-29T03:19:58.063Z,80.80
2017-09-29T03:22:25.564Z,80.70
2017-09-29T03:24:53.119Z,80.90
2017-09-29T03:27:20.622Z,80.70
2017-09-29T03:29:48.146Z,80.70
2017-09-29T03:32:15.647Z,80.90
2017-09-29T03:34:43.145Z,80.90
2017-09-29T03:37:10.662Z,81.20
2017-09-29T03:39:38.164Z,81.20
2017-09-29T03:42:05.681Z,81.20
2017-09-29T03:44:33.173Z,81.20
2017-09-29T03:47:00.685Z,81.20
2017-09-29T03:49:28.173Z,81.00
2017-09-29T03:52:08.966Z,81.10
2017-09-29T03:54:42.989Z,81.00
2017-09-29T03:57:16.079Z,80.90
2017-09-29T03:59:43.595Z,82.00
2017-09-29T04:02:11.094Z,81.40
2017-09-29T04:04:38.610Z,81.30
2017-09-29T04:07:06.110Z,81.60
2017-09-29T04:09:33.623Z,81.70
2017-09-29T04:12:01.121Z,81.90
2017-09-29T04:14:28.642Z,82.20
2017-09-29T04:16:56.140Z,82.80
2017-09-29T04:19:23.666Z,82.80
2017-09-29T04:21:51.180Z,83.10
2017-09-29T04:24:19.446Z,83.30
2017-09-29T04:26:46.967Z,83.20
2017-09-29T04:29:14.466Z,83.20
2017-09-29T04:31:42.775Z,83.20
2017-09-29T04:34:10.283Z,83.20
2017-09-29T04:36:37.818Z,83.20
2017-09-29T04:39:05.314Z,83.30
2017-09-29T04:41:32.846Z,83.10
2017-09-29T04:44:00.346Z,83.20
2017-09-29T04:46:27.849Z,83.40
2017-09-29T04:48:55.362Z,83.60
2017-09-29T04:51:22.859Z,83.70
2017-09-29T04:53:50.378Z,83.90
2017-09-29T04:56:18.641Z,84.00
2017-09-29T04:58:46.154Z,84.00
2017-09-29T05:01:13.652Z,84.00
2017-09-29T05:03:41.170Z,83.80
2017-09-29T05:06:08.670Z,83.90
2017-09-29T05:08:36.163Z,83.90
2017-09-29T05:11:03.685Z,83.80
2017-09-29T05:13:31.178Z,83.70
2017-09-29T05:15:58.703Z,83.70
2017-09-29T05:18:26.194Z,83.40
2017-09-29T05:20:53.710Z,83.40
2017-09-29T05:23:21.210Z,83.70
2017-09-29T05:25:48.710Z,83.90
2017-09-29T05:28:16.230Z,83.90
2017-09-29T05:30:43.730Z,83.90
2017-09-29T05:33:11.246Z,84.00
2017-09-29T05:35:38.738Z,84.10
2017-09-29T05:38:07.022Z,84.40
2017-09-29T05:40:34.517Z,84.20
2017-09-29T05:43:02.798Z,84.20
2017-09-29T05:45:31.062Z,84.20
2017-09-29T05:47:58.553Z,84.20
2017-09-29T05:50:26.069Z,84.20
2017-09-29T05:52:53.562Z,84.30
2017-09-29T05:55:21.077Z,85.30
2017-09-29T05:57:48.569Z,84.20
2017-09-29T06:00:16.853Z,84.20
2017-09-29T06:02:44.350Z,84.00
2017-09-29T06:05:11.881Z,84.20
2017-09-29T06:07:39.378Z,84.40
2017-09-29T06:10:06.874Z,84.60
2017-09-29T06:12:35.157Z,84.20
2017-09-29T06:15:03.444Z,84.10
2017-09-29T06:17:30.967Z,84.10
2017-09-29T06:19:58.481Z,84.20
2017-09-29T06:22:26.018Z,83.70
2017-09-29T06:24:53.519Z,83.50
2017-09-29T06:27:21.034Z,83.80
2017-09-29T06:29:48.530Z,83.80
2017-09-29T06:32:16.021Z,84.30
2017-09-29T06:34:43.558Z,84.30
2017-09-29T06:37:11.049Z,84.10
2017-09-29T06:39:39.330Z,84.20
2017-09-29T06:42:07.586Z,84.50
2017-09-29T06:44:35.106Z,84.50
2017-09-29T06:47:02.594Z,84.60
2017-09-29T06:49:30.081Z,84.60
2017-09-29T06:51:58.358Z,84.70
2017-09-29T06:54:26.626Z,84.90
2017-09-29T06:56:54.910Z,85.60
2017-09-29T06:59:23.174Z,84.80
2017-09-29T07:01:50.686Z,84.70
2017-09-29T07:04:18.173Z,85.00
2017-09-29T07:06:45.686Z,85.00
2017-09-29T07:09:13.181Z,85.00
2017-09-29T07:11:40.669Z,84.80
2017-09-29T07:14:08.257Z,85.10
2017-09-29T07:16:35.774Z,85.30
2017-09-29T07:19:03.298Z,85.00
2017-09-29T07:21:30.802Z,85.20
2017-09-29T07:23:58.326Z,85.30
2017-09-29T07:26:28.955Z,85.40
2017-09-29T07:29:00.983Z,85.30
2017-09-29T07:31:42.706Z,85.60
2017-09-29T07:34:10.230Z,86.00
2017-09-29T07:36:37.726Z,85.60
2017-09-29T07:39:05.222Z,85.50
2017-09-29T07:41:32.743Z,86.20
2017-09-29T07:44:00.238Z,85.50
2017-09-29T07:46:27.770Z,85.30
2017-09-29T07:48:55.263Z,85.20
2017-09-29T07:51:23.542Z,85.20
2017-09-29T07:53:51.802Z,85.20
2017-09-29T07:56:19.333Z,85.20
2017-09-29T07:58:46.863Z,85.10
2017-09-29T08:01:14.357Z,85.00
2017-09-29T08:03:41.874Z,85.20
2017-09-29T08:06:09.369Z,85.60
2017-09-29T08:08:36.882Z,86.00
2017-09-29T08:11:05.142Z,86.20
2017-09-29T08:13:33.431Z,86.00
2017-09-29T08:16:01.701Z,85.70
2017-09-29T08:18:29.957Z,85.40
2017-09-29T08:20:57.485Z,85.40
2017-09-29T08:23:24.978Z,85.70
2017-09-29T08:25:52.490Z,85.90
2017-09-29T08:28:20.137Z,86.00
2017-09-29T08:30:47.649Z,86.40
2017-09-29T08:33:15.141Z,86.00
2017-09-29T08:35:43.408Z,86.00
2017-09-29T08:38:11.696Z,86.20
2017-09-29T08:40:39.186Z,86.00
2017-09-29T08:43:06.701Z,86.10
2017-09-29T08:45:34.957Z,86.80
2017-09-29T08:48:02.469Z,86.70
2017-09-29T08:50:29.962Z,86.70
2017-09-29T08:52:57.454Z,87.40
2017-09-29T08:55:25.734Z,86.30
2017-09-29T08:57:53.990Z,86.60
2017-09-29T09:00:21.511Z,86.60
2017-09-29T09:02:49.005Z,86.40
2017-09-29T09:05:17.286Z,86.10
2017-09-29T09:07:45.546Z,86.00
2017-09-29T09:10:13.810Z,86.00
2017-09-29T09:12:41.321Z,86.10
2017-09-29T09:15:08.811Z,85.80
2017-09-29T09:17:36.329Z,85.10
2017-09-29T09:20:04.586Z,84.90
2017-09-29T09:22:32.862Z,85.80
2017-09-29T09:25:00.382Z,85.30
2017-09-29T09:27:27.898Z,85.00
2017-09-29T09:29:56.158Z,85.00
2017-09-29T09:32:23.652Z,84.90
2017-09-29T09:34:51.169Z,85.30
2017-09-29T09:37:18.661Z,85.50
2017-09-29T09:39:46.172Z,85.70
2017-09-29T09:42:14.435Z,86.90
2017-09-29T09:44:41.950Z,86.90
2017-09-29T09:47:09.437Z,86.10
2017-09-29T09:49:36.926Z,86.70
2017-09-29T09:52:05.214Z,86.80
2017-09-29T09:54:33.474Z,85.60
2017-09-29T09:57:00.986Z,86.00
2017-09-29T09:59:28.477Z,85.50
2017-09-29T10:01:55.993Z,85.80
2017-09-29T10:04:23.481Z,85.30
2017-09-29T10:06:50.974Z,85.90
2017-09-29T10:09:18.486Z,84.90
2017-09-29T10:11:46.000Z,85.10
2017-09-29T10:14:14.278Z,83.90
2017-09-29T10:16:42.537Z,84.60
2017-09-29T10:19:10.049Z,83.90
2017-09-29T10:21:37.540Z,83.80
2017-09-29T10:24:05.037Z,84.10
2017-09-29T10:26:33.317Z,84.30
2017-09-29T10:29:01.583Z,84.00
2017-09-29T10:31:29.862Z,84.60
2017-09-29T10:33:58.121Z,85.00
2017-09-29T10:36:26.406Z,84.90
2017-09-29T10:38:53.906Z,84.90
2017-09-29T10:41:21.397Z,84.30
2017-09-29T10:43:48.910Z,83.60
2017-09-29T10:46:16.397Z,82.30
2017-09-29T10:48:43.913Z,81.70
2017-09-29T10:51:12.170Z,79.50
2017-09-29T10:53:40.474Z,79.20
2017-09-29T10:56:08.730Z,78.20
2017-09-29T10:58:37.010Z,77.30
2017-09-29T11:01:05.269Z,76.30
2017-09-29T11:03:32.761Z,76.30
2017-09-29T11:06:01.042Z,75.10
2017-09-29T11:08:28.533Z,75.10
2017-09-29T11:10:56.046Z,75.20
2017-09-29T11:13:24.301Z,73.70
2017-09-29T11:15:51.813Z,73.70
2017-09-29T11:18:19.301Z,73.70
2017-09-29T11:20:46.793Z,72.60
2017-09-29T11:23:15.086Z,73.00
2017-09-29T11:25:42.577Z,72.90
2017-09-29T11:28:10.093Z,72.30
2017-09-29T11:30:38.349Z,72.10
2017-09-29T11:33:05.866Z,72.00
2017-09-29T11:35:33.354Z,71.20
2017-09-29T11:38:00.846Z,71.80
2017-09-29T11:40:29.127Z,71.70
2017-09-29T11:42:56.621Z,71.70
2017-09-29T11:45:24.903Z,73.00
2017-09-29T11:47:52.397Z,73.00
2017-09-29T11:50:20.677Z,73.50
2017-09-29T11:52:48.934Z,72.60
2017-09-29T11:55:17.195Z,72.70
2017-09-29T11:57:44.705Z,72.70
2017-09-29T12:00:12.217Z,71.60
2017-09-29T12:02:40.521Z,72.40
2017-09-29T12:05:08.782Z,70.80
2017-09-29T12:07:37.797Z,71.80
2017-09-29T12:10:06.059Z,70.50
2017-09-29T12:12:34.349Z,69.80
2017-09-29T12:15:02.650Z,68.20
2017-09-29T12:17:30.141Z,68.00
2017-09-29T12:19:57.653Z,68.40
2017-09-29T12:22:25.918Z,65.10
2017-09-29T12:24:54.198Z,65.00
2017-09-29T12:27:22.457Z,63.90
2017-09-29T12:29:49.974Z,63.90
2017-09-29T12:32:17.466Z,64.70
2017-09-29T12:34:44.958Z,65.70
2017-09-29T12:37:13.234Z,65.00
2017-09-29T12:39:41.494Z,66.00
2017-09-29T12:42:09.772Z,65.30
2017-09-29T12:44:38.033Z,64.60
2017-09-29T12:47:05.550Z,64.60
2017-09-29T12:49:33.036Z,64.20
2017-09-29T12:52:00.525Z,66.10
2017-09-29T12:54:28.801Z,66.30
2017-09-29T12:56:57.068Z,65.90
2017-09-29T12:59:25.353Z,66.40
2017-09-29T13:01:53.609Z,66.40
2017-09-29T13:04:21.125Z,66.40
2017-09-29T13:06:48.617Z,66.70
2017-09-29T13:09:16.110Z,67.30
2017-09-29T13:11:44.389Z,66.10
2017-09-29T13:14:12.660Z,65.80
2017-09-29T13:16:40.938Z,66.20
2017-09-29T13:19:09.195Z,66.40
2017-09-29T13:21:36.709Z,66.40
2017-09-29T13:24:04.201Z,65.90
2017-09-29T13:26:31.718Z,66.20
2017-09-29T13:28:59.212Z,66.70
2017-09-29T13:31:26.701Z,65.70
2017-09-29T13:33:54.981Z,63.90
2017-09-29T13:36:23.234Z,62.60
2017-09-29T13:38:50.745Z,62.40
2017-09-29T13:41:18.238Z,60.40
2017-09-29T13:43:45.762Z,58.70
2017-09-29T13:46:13.261Z,58.40
2017-09-29T13:48:40.785Z,57.50
2017-09-29T13:51:08.276Z,57.00
2017-09-29T13:53:35.764Z,55.90
2017-09-29T13:56:04.041Z,54.90
2017-09-29T13:58:32.297Z,54.70
2017-09-29T14:00:59.824Z,54.70
2017-09-29T14:03:27.321Z,54.70
2017-09-29T14:05:54.845Z,55.50
2017-09-29T14:08:22.346Z,55.70
2017-09-29T14:10:50.601Z,55.80
2017-09-29T14:13:18.118Z,55.80
2017-09-29T14:15:45.621Z,56.30
2017-09-29T14:18:13.137Z,57.10
2017-09-29T14:20:40.628Z,57.00
2017-09-29T14:23:08.137Z,57.30
2017-09-29T14:25:35.634Z,58.10
2017-09-29T14:28:03.126Z,58.30
2017-09-29T14:30:31.401Z,59.60
2017-09-29T14:32:59.657Z,59.20
2017-09-29T14:35:27.227Z,59.20
2017-09-29T14:37:55.498Z,60.20
2017-09-29T14:40:23.014Z,60.20
2017-09-29T14:42:50.513Z,62.10
2017-09-29T14:45:18.038Z,62.20
2017-09-29T14:47:45.529Z,63.60
2017-09-29T14:50:13.022Z,64.20
2017-09-29T14:52:41.296Z,65.50
2017-09-29T14:55:09.559Z,66.30
2017-09-29T14:57:37.832Z,66.90
2017-09-29T15:00:05.326Z,66.80
2017-09-29T15:02:32.841Z,67.70
2017-09-29T15:05:01.097Z,68.90
2017-09-29T15:07:28.614Z,68.90
2017-09-29T15:09:56.106Z,69.10
2017-09-29T15:12:23.597Z,69.10
2017-09-29T15:14:51.113Z,69.80
2017-09-29T15:17:18.605Z,70.10
2017-09-29T15:19:46.122Z,70.00
2017-09-29T15:22:13.609Z,70.40
2017-09-29T15:24:41.122Z,70.50
2017-09-29T15:27:08.623Z,70.80
2017-09-29T15:29:36.132Z,71.10
2017-09-29T15:32:03.625Z,71.30
2017-09-29T15:34:31.118Z,71.90
2017-09-29T15:36:58.630Z,72.10
2017-09-29T15:39:26.121Z,72.30
2017-09-29T15:41:53.633Z,72.60
2017-09-29T15:44:21.126Z,72.50
2017-09-29T15:46:48.639Z,72.70
2017-09-29T15:49:16.133Z,72.90
2017-09-29T15:51:43.621Z,72.80
2017-09-29T15:54:11.135Z,72.80
2017-09-29T15:56:38.626Z,72.90
2017-09-29T15:59:06.138Z,73.10
2017-09-29T16:01:33.657Z,73.20
2017-09-29T16:04:01.170Z,73.30
2017-09-29T16:06:28.662Z,73.60
2017-09-29T16:08:56.181Z,74.30
2017-09-29T16:11:23.673Z,74.60
2017-09-29T16:13:51.161Z,75.20
2017-09-29T16:16:19.437Z,75.70
2017-09-29T16:18:47.693Z,76.20
2017-09-29T16:21:15.209Z,76.20
2017-09-29T16:23:42.701Z,76.70
2017-09-29T16:26:10.228Z,76.80
2017-09-29T16:28:37.729Z,77.30
2017-09-29T16:31:05.241Z,77.60
2017-09-29T16:33:32.733Z,78.00
2017-09-29T16:36:00.222Z,78.20
2017-09-29T16:38:28.500Z,78.70
2017-09-29T16:40:56.757Z,78.90
2017-09-29T16:43:24.269Z,78.90
2017-09-29T16:45:51.762Z,79.20
2017-09-29T16:48:19.274Z,79.50
2017-09-29T16:50:46.768Z,79.60
2017-09-29T16:53:14.265Z,79.80
2017-09-29T16:55:42.542Z,80.10
2017-09-29T16:58:10.797Z,80.20
2017-09-29T17:00:38.315Z,80.10
2017-09-29T17:03:05.805Z,80.10
2017-09-29T17:05:33.317Z,80.40
2017-09-29T17:08:00.810Z,80.60
2017-09-29T17:10:28.306Z,80.70
2017-09-29T17:12:56.589Z,81.00
2017-09-29T17:15:24.850Z,81.20
2017-09-29T17:17:52.361Z,81.20
2017-09-29T17:20:19.858Z,81.40
2017-09-29T17:22:47.373Z,81.40
2017-09-29T17:25:14.865Z,81.60
2017-09-29T17:27:42.357Z,81.80
2017-09-29T17:30:10.632Z,82.20
2017-09-29T17:32:38.889Z,82.20
2017-09-29T17:35:06.403Z,82.10
2017-09-29T17:37:33.892Z,82.00
2017-09-29T17:40:01.407Z,82.30
2017-09-29T17:42:28.901Z,82.30
2017-09-29T17:44:56.394Z,82.50
2017-09-29T17:47:24.674Z,82.10
2017-09-29T17:49:52.929Z,82.40
2017-09-29T17:52:20.441Z,82.40
2017-09-29T17:54:47.933Z,82.60
2017-09-29T17:57:15.445Z,82.80
2017-09-29T17:59:42.941Z,82.70
2017-09-29T18:02:10.517Z,82.70
2017-09-29T18:04:39.562Z,82.80
2017-09-29T18:07:07.053Z,82.80
2017-09-29T18:09:34.565Z,82.90
2017-09-29T18:12:02.825Z,83.10
2017-09-29T18:14:31.221Z,82.90
2017-09-29T18:16:58.714Z,83.40
2017-09-29T18:19:26.201Z,83.70
2017-09-29T18:21:53.714Z,83.70
2017-09-29T18:24:21.205Z,84.10
2017-09-29T18:26:48.727Z,84.00
2017-09-29T18:29:16.223Z,84.00
2017-09-29T18:31:43.749Z,84.20
2017-09-29T18:34:11.241Z,84.10
2017-09-29T18:36:38.753Z,84.10
2017-09-29T18:39:06.246Z,84.10
2017-09-29T18:41:39.622Z,84.20
2017-09-29T18:44:09.801Z,84.20
2017-09-29T18:49:43.831Z,84.10
2017-09-29T18:52:11.346Z,84.30
2017-09-29T18:54:38.854Z,84.60
2017-09-29T18:57:07.114Z,85.30
2017-09-29T18:59:35.398Z,85.10
2017-09-29T19:02:02.891Z,85.10
2017-09-29T19:04:30.409Z,85.20
2017-09-29T19:06:57.902Z,85.10
2017-09-29T19:09:25.435Z,85.20
2017-09-29T19:11:53.693Z,85.90
2017-09-29T19:14:21.185Z,85.10
2017-09-29T19:16:49.465Z,85.30
2017-09-29T19:19:16.961Z,85.30
2017-09-29T19:21:44.477Z,86.10
2017-09-29T19:24:12.733Z,85.20
2017-09-29T19:26:40.246Z,85.00
2017-09-29T19:29:07.734Z,85.00
2017-09-29T19:31:35.246Z,85.10
2017-09-29T19:34:02.737Z,85.10
2017-09-29T19:36:30.230Z,85.20
2017-09-29T19:38:58.515Z,85.60
2017-09-29T19:41:26.776Z,85.00
2017-09-29T19:43:54.301Z,84.90
2017-09-29T19:46:21.789Z,84.90
2017-09-29T19:48:49.314Z,84.70
2017-09-29T19:51:16.809Z,84.60
2017-09-29T19:53:44.308Z,84.50
2017-09-29T19:56:11.817Z,84.50
2017-09-29T19:58:39.306Z,84.50
2017-09-29T20:01:07.589Z,84.80
2017-09-29T20:03:35.082Z,84.80
2017-09-29T20:06:02.598Z,85.20
2017-09-29T20:08:30.853Z,85.40
2017-09-29T20:10:58.374Z,85.50
2017-09-29T20:13:25.869Z,86.20
2017-09-29T20:15:53.361Z,85.40
2017-09-29T20:18:20.869Z,85.70
2017-09-29T20:20:48.361Z,85.80
2017-09-29T20:23:16.645Z,85.60
2017-09-29T20:25:44.145Z,85.50
2017-09-29T20:28:11.658Z,85.60
2017-09-29T20:30:39.946Z,85.70
2017-09-29T20:33:07.472Z,85.60
2017-09-29T20:35:34.981Z,85.70
2017-09-29T20:38:02.469Z,85.70
2017-09-29T20:40:29.983Z,85.50
2017-09-29T20:42:57.478Z,85.70
2017-09-29T20:45:24.989Z,86.00
2017-09-29T20:47:52.481Z,86.30
2017-09-29T20:50:20.001Z,86.30
2017-09-29T20:52:48.262Z,86.60
2017-09-29T20:55:16.567Z,86.90
2017-09-29T20:57:44.102Z,86.80
2017-09-29T21:00:12.382Z,87.20
2017-09-29T21:02:40.666Z,87.30
2017-09-29T21:05:08.927Z,87.30
2017-09-29T21:07:37.225Z,87.30
2017-09-29T21:10:04.726Z,87.30
2017-09-29T21:12:32.221Z,87.10
2017-09-29T21:15:00.534Z,87.20
2017-09-29T21:17:28.028Z,87.20
2017-09-29T21:19:55.537Z,87.10
2017-09-29T21:22:23.039Z,87.00
2017-09-29T21:24:50.561Z,86.80
2017-09-29T21:27:18.059Z,86.70
2017-09-29T21:29:45.549Z,86.70
2017-09-29T21:32:13.838Z,86.40
2017-09-29T21:34:42.097Z,86.30
2017-09-29T21:37:09.611Z,86.30
2017-09-29T21:39:37.106Z,86.40
2017-09-29T21:42:04.620Z,86.40
2017-09-29T21:44:32.125Z,86.30
2017-09-29T21:46:59.617Z,86.10
2017-09-29T21:49:27.133Z,86.00
2017-09-29T21:51:54.629Z,85.80
2017-09-29T21:54:22.146Z,85.60
2017-09-29T21:56:50.401Z,85.40
2017-09-29T21:59:17.918Z,85.40
2017-09-29T22:01:45.411Z,85.40
2017-09-29T22:04:12.897Z,85.40
2017-09-29T22:06:40.411Z,85.60
2017-09-29T22:09:07.905Z,85.70
2017-09-29T22:11:35.429Z,85.80
2017-09-29T22:14:02.921Z,86.00
2017-09-29T22:16:30.433Z,86.10
2017-09-29T22:18:57.945Z,86.20
2017-09-29T22:21:25.463Z,86.20
2017-09-29T22:23:53.026Z,86.00
2017-09-29T22:26:20.525Z,86.00
2017-09-29T22:28:48.042Z,86.00
2017-09-29T22:31:15.537Z,86.00
2017-09-29T22:33:43.050Z,86.00
2017-09-29T22:36:10.550Z,85.90
2017-09-29T22:38:38.313Z,86.00
2017-09-29T22:41:06.570Z,86.10
2017-09-29T22:43:34.061Z,86.10
2017-09-29T22:46:01.575Z,86.00
2017-09-29T22:48:29.068Z,85.90
2017-09-29T22:50:56.582Z,85.90
2017-09-29T22:53:24.072Z,85.80
2017-09-29T22:55:51.585Z,85.90
2017-09-29T22:58:19.085Z,86.20
2017-09-29T23:00:46.573Z,86.30
2017-09-29T23:03:14.853Z,86.30
2017-09-29T23:05:42.355Z,86.30
2017-09-29T23:08:09.874Z,85.80
2017-09-29T23:10:38.134Z,86.30
2017-09-29T23:13:05.649Z,86.30
2017-09-29T23:15:33.137Z,86.20
2017-09-29T23:18:00.629Z,86.20
2017-09-29T23:20:28.906Z,86.10
2017-09-29T23:22:58.000Z,86.20
2017-09-29T23:25:25.525Z,86.10
2017-09-29T23:27:53.024Z,86.30
2017-09-29T23:30:21.305Z,86.30
2017-09-29T23:32:48.810Z,86.30
2017-09-29T23:35:16.311Z,86.30
2017-09-29T23:37:44.589Z,86.30
2017-09-29T23:40:12.854Z,86.40
2017-09-29T23:42:40.373Z,86.40
2017-09-29T23:45:07.870Z,86.40
2017-09-29T23:47:35.389Z,86.50
2017-09-29T23:50:02.882Z,86.50
2017-09-29T23:52:31.137Z,86.40
2017-09-29T23:54:58.650Z,86.50
2017-09-29T23:57:26.141Z,86.40
2017-09-29T23:59:53.657Z,86.30
